Time;durP1;ratioP1;P1;durP2;ratioP2;P2;SDS_P1;SDS_P2;PMS_P1;PMS_P2;Temp;Humidity;BMP_temperature;BMP_pressure;BME280_temperature;BME280_humidity;BME280_pressure;Samples;Min_cycle;Max_cycle;Signal;HPM_P1;HPM_P2
2023/04/14 00:00:52;;;;;;;13.50;10.20;;;;;;;9.88;66.61;99266.80;1468780;87;21577;-82
2023/04/14 00:03:18;;;;;;;11.40;7.70;;;;;;;9.86;66.67;99273.25;1480137;88;22350;-82
2023/04/14 00:05:44;;;;;;;16.47;11.43;;;;;;;9.83;66.54;99269.13;1474108;87;21570;-82
2023/04/14 00:08:10;;;;;;;22.87;14.67;;;;;;;9.79;66.72;99259.91;1475955;88;21440;-81
2023/04/14 00:10:36;;;;;;;14.20;7.87;;;;;;;9.75;66.60;99251.97;1472215;88;22446;-81
2023/04/14 00:13:03;;;;;;;16.50;11.80;;;;;;;9.70;66.96;99258.30;1471705;88;21648;-80
2023/04/14 00:15:29;;;;;;;13.77;9.33;;;;;;;9.65;66.64;99263.25;1472118;88;21588;-83
2023/04/14 00:17:55;;;;;;;16.33;7.37;;;;;;;9.61;66.87;99264.57;1475637;87;21442;-82
2023/04/14 00:20:22;;;;;;;8.77;6.73;;;;;;;9.57;66.95;99260.63;1471815;87;21441;-81
2023/04/14 00:22:49;;;;;;;7.97;6.27;;;;;;;9.53;67.67;99256.19;1475026;87;21493;-81
2023/04/14 00:25:15;;;;;;;12.57;6.57;;;;;;;9.52;68.11;99249.24;1466117;88;22464;-81
2023/04/14 00:27:41;;;;;;;13.57;7.40;;;;;;;9.52;68.08;99247.11;1473758;88;21478;-80
2023/04/14 00:30:09;;;;;;;65.27;31.60;;;;;;;9.53;67.94;99242.17;1471826;88;21560;-81
2023/04/14 00:32:35;;;;;;;76.57;35.27;;;;;;;9.54;67.73;99245.13;1476356;88;21478;-82
2023/04/14 00:35:02;;;;;;;73.73;37.70;;;;;;;9.53;67.61;99239.02;1470915;88;22379;-81
2023/04/14 00:37:29;;;;;;;56.00;27.30;;;;;;;9.49;67.54;99238.55;1471365;87;21442;-80
2023/04/14 00:39:56;;;;;;;30.53;17.03;;;;;;;9.49;67.33;99227.98;1475237;88;21434;-82
2023/04/14 00:42:22;;;;;;;16.63;11.27;;;;;;;9.48;67.35;99235.56;1473057;87;21692;-81
2023/04/14 00:44:49;;;;;;;16.07;9.60;;;;;;;9.48;67.58;99232.92;1466129;87;22439;-81
2023/04/14 00:47:16;;;;;;;13.03;9.33;;;;;;;9.47;67.49;99231.28;1475900;87;21611;-80
2023/04/14 00:49:42;;;;;;;11.57;7.70;;;;;;;9.46;67.47;99226.16;1476332;87;21406;-83
2023/04/14 00:52:10;;;;;;;11.67;8.17;;;;;;;9.44;67.75;99230.30;1475904;87;21560;-83
2023/04/14 00:54:37;;;;;;;15.50;10.03;;;;;;;9.42;67.73;99225.67;1482330;88;21450;-83
2023/04/14 00:57:04;;;;;;;12.23;7.67;;;;;;;9.40;67.49;99217.09;1472371;87;22388;-83
2023/04/14 00:59:30;;;;;;;10.90;8.17;;;;;;;9.38;67.63;99219.10;1477838;87;21545;-82
2023/04/14 01:01:59;;;;;;;10.80;7.20;;;;;;;9.38;68.23;99217.78;1475995;87;21592;-82
2023/04/14 01:04:26;;;;;;;17.70;9.67;;;;;;;9.39;68.35;99224.70;1469685;88;21463;-81
2023/04/14 01:06:53;;;;;;;11.67;8.33;;;;;;;9.42;68.74;99227.00;1461523;88;21479;-82
2023/04/14 01:09:19;;;;;;;10.43;7.13;;;;;;;9.45;68.29;99224.52;1474476;87;21538;-81
2023/04/14 01:12:14;;;;;;;10.20;7.20;;;;;;;9.47;68.00;99219.39;1469249;87;21529;-81
2023/04/14 01:14:51;;;;;;;10.67;7.50;;;;;;;9.49;67.83;99210.81;1473299;88;22239;-82
2023/04/14 01:17:26;;;;;;;8.37;6.40;;;;;;;9.48;67.51;99209.66;1472780;87;22506;-82
2023/04/14 01:20:23;;;;;;;13.93;8.20;;;;;;;9.47;67.86;99218.08;1477182;88;21479;-82
2023/04/14 01:22:56;;;;;;;18.20;11.43;;;;;;;9.46;67.64;99214.27;1469300;88;21360;-83
2023/04/14 01:26:07;;;;;;;13.37;9.43;;;;;;;9.42;67.50;99216.44;1481366;88;22157;-82
2023/04/14 01:29:00;;;;;;;16.57;11.05;;;;;;;9.39;67.46;99214.13;1471554;87;21692;-82
2023/04/14 01:31:41;;;;;;;12.60;8.47;;;;;;;9.33;68.07;99214.00;1471109;87;21472;-82
2023/04/14 01:34:24;;;;;;;13.15;7.35;;;;;;;9.30;67.46;99209.88;1480704;87;23029;-83
2023/04/14 01:37:05;;;;;;;11.33;7.53;;;;;;;9.27;67.52;99203.61;1472210;87;21500;-85
2023/04/14 01:39:37;;;;;;;;;;;;;;;9.22;67.76;99198.01;1471988;87;21389;-83
2023/04/14 01:42:08;;;;;;;13.10;7.53;;;;;;;9.18;68.74;99188.80;1474652;88;20341;-82
2023/04/14 01:44:34;;;;;;;;;;;;;;;9.15;67.67;99186.46;1473030;87;21553;-83
2023/04/14 01:47:05;;;;;;;10.67;6.80;;;;;;;9.12;68.58;99187.65;1474370;87;20348;-83
2023/04/14 01:49:35;;;;;;;13.53;6.40;;;;;;;9.13;68.29;99184.51;1478504;87;22321;-85
2023/04/14 01:52:05;;;;;;;10.87;6.63;;;;;;;9.12;68.68;99179.73;1471102;87;21566;-83
2023/04/14 01:54:33;;;;;;;10.78;6.72;;;;;;;9.17;69.13;99169.97;1469271;88;21493;-84
2023/04/14 01:57:02;;;;;;;15.20;7.87;;;;;;;9.21;69.25;99176.57;1475534;88;21641;-84
2023/04/14 01:59:31;;;;;;;10.30;7.17;;;;;;;9.23;68.98;99179.84;1470476;87;21464;-82
2023/04/14 02:02:00;;;;;;;9.73;7.03;;;;;;;9.22;69.11;99182.98;1480713;87;21574;-83
2023/04/14 02:04:30;;;;;;;10.93;6.83;;;;;;;9.24;69.32;99186.80;1470296;88;21648;-83
2023/04/14 02:06:59;;;;;;;12.63;7.80;;;;;;;9.22;69.62;99189.59;1472909;88;21427;-83
2023/04/14 02:09:28;;;;;;;12.60;7.13;;;;;;;9.21;69.92;99180.53;1477285;87;21503;-84
2023/04/14 02:11:55;;;;;;;14.93;7.33;;;;;;;9.18;70.05;99183.02;1473921;87;21530;-84
2023/04/14 02:14:23;;;;;;;10.30;7.00;;;;;;;9.13;71.63;99182.69;1478578;87;21501;-85
2023/04/14 02:16:52;;;;;;;10.90;7.57;;;;;;;9.13;71.05;99177.41;1477234;88;22431;-84
2023/04/14 02:19:21;;;;;;;12.40;8.07;;;;;;;9.10;71.26;99162.41;1468869;88;21449;-85
2023/04/14 02:21:50;;;;;;;11.43;7.23;;;;;;;9.07;70.89;99157.47;1471576;87;21530;-83
2023/04/14 02:24:17;;;;;;;10.67;7.57;;;;;;;9.08;70.73;99164.39;1478181;88;21700;-84
2023/04/14 02:26:54;;;;;;;10.43;7.53;;;;;;;9.09;71.28;99168.66;1472189;88;21552;-84
2023/04/14 02:29:23;;;;;;;13.13;7.83;;;;;;;9.11;70.63;99165.37;1474968;88;21419;-82
2023/04/14 02:31:57;;;;;;;10.50;7.13;;;;;;;9.12;70.30;99167.00;1467802;87;21644;-83
2023/04/14 02:34:29;;;;;;;14.23;8.13;;;;;;;9.12;70.06;99167.00;1473450;87;22393;-83
2023/04/14 02:36:59;;;;;;;11.33;7.83;;;;;;;9.12;70.28;99163.89;1469186;87;21456;-84
2023/04/14 02:39:30;;;;;;;13.13;8.30;;;;;;;9.11;69.99;99164.86;1480490;88;22988;-83
2023/04/14 02:42:05;;;;;;;18.33;9.90;;;;;;;9.09;70.13;99166.02;1470509;87;21471;-83
2023/04/14 02:44:35;;;;;;;13.10;8.87;;;;;;;9.07;70.53;99171.98;1476794;88;21656;-84
2023/04/14 02:47:09;;;;;;;13.15;7.75;;;;;;;9.04;70.90;99167.87;1480074;88;22903;-84
2023/04/14 02:49:48;;;;;;;16.67;9.20;;;;;;;9.00;70.15;99158.12;1476757;88;21479;-84
2023/04/14 02:52:18;;;;;;;15.20;8.37;;;;;;;8.98;70.07;99160.13;1473967;87;21529;-84
2023/04/14 02:54:46;;;;;;;15.87;8.20;;;;;;;8.96;70.27;99154.18;1469469;87;21508;-84
2023/04/14 02:57:14;;;;;;;11.20;7.70;;;;;;;8.94;70.48;99146.92;1470446;88;21478;-84
2023/04/14 02:59:42;;;;;;;11.93;7.63;;;;;;;8.94;70.70;99150.06;1474990;88;22543;-83
2023/04/14 03:02:10;;;;;;;16.20;8.57;;;;;;;8.94;70.64;99144.28;1474234;87;21426;-83
2023/04/14 03:04:38;;;;;;;15.67;7.07;;;;;;;8.94;70.39;99147.42;1469116;88;21471;-83
2023/04/14 03:07:10;;;;;;;16.73;8.87;;;;;;;8.96;70.13;99149.41;1473760;87;21419;-84
2023/04/14 03:09:37;;;;;;;15.10;8.20;;;;;;;8.94;70.22;99146.10;1469270;87;21618;-83
2023/04/14 03:12:04;;;;;;;15.77;9.10;;;;;;;8.91;70.28;99139.34;1477215;87;21457;-84
2023/04/14 03:14:31;;;;;;;14.23;8.43;;;;;;;8.88;70.15;99135.72;1478889;88;21419;-84
2023/04/14 03:16:59;;;;;;;12.70;8.13;;;;;;;8.83;70.15;99140.67;1469453;88;21611;-83
2023/04/14 03:19:27;;;;;;;17.83;9.57;;;;;;;8.75;69.84;99146.81;1480177;87;21582;-83
2023/04/14 03:21:54;;;;;;;16.60;9.70;;;;;;;8.70;70.03;99148.30;1454526;89;22486;-83
2023/04/14 03:24:26;;;;;;;14.60;9.33;;;;;;;8.64;70.30;99141.88;1463764;88;21515;-84
2023/04/14 03:27:06;;;;;;;13.90;8.93;;;;;;;8.59;70.27;99142.86;1478073;87;21506;-82
2023/04/14 03:29:41;;;;;;;13.28;7.60;;;;;;;8.54;70.62;99138.06;1474040;88;21411;-82
2023/04/14 03:32:09;;;;;;;18.47;9.47;;;;;;;8.49;71.29;99125.08;1482463;87;22329;-81
2023/04/14 03:34:40;;;;;;;14.70;9.87;;;;;;;8.49;71.13;99123.27;1486259;88;21685;-82
2023/04/14 03:37:06;;;;;;;;;;;;;;;8.47;71.05;99118.64;1477673;88;21538;-83
2023/04/14 03:39:37;;;;;;;16.43;9.63;;;;;;;8.44;71.39;99108.42;1478242;88;20311;-83
2023/04/14 03:42:07;;;;;;;15.10;9.35;;;;;;;8.43;70.97;99104.16;1483500;87;21449;-82
2023/04/14 03:44:37;;;;;;;14.73;9.55;;;;;;;8.42;71.35;99102.98;1477608;87;22483;-82
2023/04/14 03:47:06;;;;;;;17.10;9.20;;;;;;;8.40;71.09;99100.53;1460831;88;21522;-82
2023/04/14 03:49:36;;;;;;;12.47;8.93;;;;;;;8.36;71.00;99107.08;1474078;88;21389;-82
2023/04/14 03:52:07;;;;;;;14.73;11.18;;;;;;;8.33;71.10;99108.73;1482632;87;21470;-81
2023/04/14 03:54:35;;;;;;;;;;;;;;;8.29;71.62;99102.16;1479190;88;21523;-82
2023/04/14 03:57:05;;;;;;;18.60;10.73;;;;;;;8.24;72.59;99101.31;1478664;87;20288;-82
2023/04/14 03:59:32;;;;;;;18.13;10.93;;;;;;;8.20;71.29;99096.06;1468868;88;21470;-82
2023/04/14 04:02:00;;;;;;;13.70;8.77;;;;;;;8.18;71.56;99089.30;1480551;87;22505;-82
2023/04/14 04:04:27;;;;;;;18.17;10.37;;;;;;;8.17;72.11;99092.44;1456384;88;21405;-81
2023/04/14 04:06:53;;;;;;;12.90;8.30;;;;;;;8.18;72.36;99081.39;1482760;87;22453;-82
2023/04/14 04:09:23;;;;;;;14.70;10.23;;;;;;;8.20;72.28;99067.06;1479149;88;21633;-81
2023/04/14 04:11:52;;;;;;;13.95;9.80;;;;;;;8.23;72.31;99071.16;1484193;87;22631;-82
2023/04/14 04:14:21;;;;;;;16.90;8.83;;;;;;;8.25;72.37;99079.73;1463473;88;21375;-81
2023/04/14 04:16:49;;;;;;;15.20;10.23;;;;;;;8.26;71.91;99077.45;1481423;87;21537;-82
2023/04/14 04:19:20;;;;;;;15.63;9.80;;;;;;;8.28;71.56;99078.08;1484881;88;21536;-81
2023/04/14 04:21:48;;;;;;;;;;;;;;;8.29;71.75;99072.66;1481020;88;21404;-83
2023/04/14 04:24:16;;;;;;;14.87;9.67;;;;;;;8.28;72.52;99072.81;1480760;87;20318;-81
2023/04/14 04:26:43;;;;;;;14.43;10.20;;;;;;;8.29;71.82;99070.52;1486525;88;21537;-81
2023/04/14 04:29:11;;;;;;;15.27;9.80;;;;;;;8.28;71.72;99074.13;1474422;88;21493;-81
2023/04/14 04:31:39;;;;;;;18.93;10.63;;;;;;;8.29;72.23;99075.29;1487247;88;21411;-80
2023/04/14 04:34:07;;;;;;;14.47;9.20;;;;;;;8.30;72.10;99074.79;1485581;87;21463;-82
2023/04/14 04:36:34;;;;;;;18.03;10.00;;;;;;;8.32;72.19;99068.37;1475051;88;21499;-82
2023/04/14 04:39:00;;;;;;;19.80;10.47;;;;;;;8.39;72.35;99072.50;1476774;88;21500;-82
2023/04/14 04:41:28;;;;;;;19.63;9.63;;;;;;;8.47;72.59;99083.05;1483479;87;22349;-82
2023/04/14 04:43:58;;;;;;;12.30;8.33;;;;;;;8.54;72.48;99089.28;1491707;87;21588;-82
2023/04/14 04:46:51;;;;;;;16.97;9.83;;;;;;;8.64;72.06;99085.66;1493407;87;21669;-82
2023/04/14 04:49:17;;;;;;;17.23;9.80;;;;;;;8.72;71.65;99094.89;1482782;87;23136;-82
2023/04/14 04:51:43;;;;;;;15.53;9.60;;;;;;;8.78;71.23;99094.21;1486357;87;21418;-81
2023/04/14 04:54:09;;;;;;;17.77;9.70;;;;;;;8.84;71.31;99096.67;1483235;87;21367;-81
2023/04/14 04:56:36;;;;;;;17.80;10.03;;;;;;;8.89;71.44;99091.22;1484974;87;22188;-82
2023/04/14 04:59:03;;;;;;;12.50;9.23;;;;;;;8.95;70.94;99089.72;1482999;87;21632;-81
2023/04/14 05:01:29;;;;;;;15.30;9.03;;;;;;;8.99;71.07;99107.66;1484725;87;21470;-81
2023/04/14 05:03:56;;;;;;;12.97;8.97;;;;;;;9.02;70.98;99110.46;1471826;87;21455;-81
2023/04/14 05:06:23;;;;;;;15.30;10.67;;;;;;;9.03;70.78;99092.30;1484445;87;21433;-79
2023/04/14 05:08:53;;;;;;;13.60;9.60;;;;;;;9.07;70.96;99082.25;1492256;87;22254;-80
2023/04/14 05:11:19;;;;;;;17.70;10.05;;;;;;;9.10;70.74;99083.23;1471618;87;21419;-81
2023/04/14 05:13:48;;;;;;;15.97;9.33;;;;;;;9.16;70.69;99083.86;1480965;87;21976;-81
2023/04/14 05:16:14;;;;;;;13.53;8.33;;;;;;;9.20;70.70;99079.37;1490096;88;22313;-81
2023/04/14 05:18:42;;;;;;;13.90;8.97;;;;;;;9.25;70.90;99074.41;1465035;88;21615;-82
2023/04/14 05:21:14;;;;;;;18.03;8.03;;;;;;;9.33;71.17;99081.48;1475813;87;21464;-79
2023/04/14 05:23:42;;;;;;;13.53;8.40;;;;;;;9.42;70.73;99080.44;1488418;88;21471;-81
2023/04/14 05:26:15;;;;;;;14.20;9.00;;;;;;;9.51;70.12;99076.44;1486581;87;22356;-81
2023/04/14 05:28:40;;;;;;;15.25;9.48;;;;;;;9.60;69.99;99077.52;1481672;87;21463;-80
2023/04/14 05:31:06;;;;;;;17.47;9.60;;;;;;;9.68;70.32;99076.16;1475595;88;21396;-83
2023/04/14 05:33:34;;;;;;;15.30;8.47;;;;;;;9.79;70.44;99088.66;1479543;87;22446;-82
2023/04/14 05:36:00;;;;;;;13.20;9.17;;;;;;;9.89;70.71;99085.27;1486982;87;21426;-82
2023/04/14 05:38:27;;;;;;;15.67;10.07;;;;;;;9.96;70.84;99073.01;1479530;88;22505;-83
2023/04/14 05:40:53;;;;;;;14.83;9.53;;;;;;;10.04;70.67;99068.14;1483231;88;21441;-81
2023/04/14 05:43:19;;;;;;;15.57;10.27;;;;;;;10.38;69.17;99065.89;1482899;87;21663;-79
2023/04/14 05:45:46;;;;;;;15.53;9.77;;;;;;;10.53;72.14;99065.09;1485450;87;21456;-79
2023/04/14 05:48:13;;;;;;;13.57;8.33;;;;;;;10.42;68.29;99061.59;1477324;87;21552;-80
2023/04/14 05:50:40;;;;;;;11.43;8.13;;;;;;;10.44;67.36;99059.57;1487631;88;22269;-79
2023/04/14 05:53:06;;;;;;;17.97;8.03;;;;;;;10.48;67.11;99066.98;1475427;87;21449;-80
2023/04/14 05:55:32;;;;;;;12.63;8.00;;;;;;;10.55;66.80;99067.07;1479274;87;22387;-80
2023/04/14 05:57:59;;;;;;;10.73;7.67;;;;;;;10.61;66.68;99065.84;1485521;87;21412;-80
2023/04/14 06:00:26;;;;;;;15.77;8.13;;;;;;;10.69;66.34;99071.56;1479857;88;21405;-80
2023/04/14 06:02:52;;;;;;;15.07;8.30;;;;;;;10.79;66.20;99072.13;1486503;88;21457;-80
2023/04/14 06:05:18;;;;;;;14.77;9.03;;;;;;;10.87;65.98;99071.70;1484721;87;22311;-79
2023/04/14 06:07:45;;;;;;;15.30;9.73;;;;;;;10.96;66.04;99058.69;1487772;87;22439;-80
2023/04/14 06:10:12;;;;;;;20.30;11.83;;;;;;;11.06;65.67;99058.73;1478101;87;21456;-81
2023/04/14 06:12:38;;;;;;;19.77;10.73;;;;;;;11.17;64.07;99057.45;1483091;88;21625;-80
2023/04/14 06:15:05;;;;;;;17.53;10.47;;;;;;;11.28;64.43;99060.95;1471951;88;21381;-80
2023/04/14 06:17:33;;;;;;;9.03;6.63;;;;;;;11.39;64.50;99056.16;1482442;88;21553;-79
2023/04/14 06:20:01;;;;;;;9.20;6.93;;;;;;;11.49;63.98;99054.05;1479563;88;21420;-80
2023/04/14 06:22:28;;;;;;;10.23;6.77;;;;;;;11.60;63.66;99060.70;1477850;88;21604;-79
2023/04/14 06:24:58;;;;;;;8.93;6.20;;;;;;;11.69;63.32;99059.06;1463559;88;21434;-79
2023/04/14 06:27:25;;;;;;;8.20;6.62;;;;;;;11.81;62.97;99051.94;1455696;88;21597;-79
2023/04/14 06:29:51;;;;;;;7.73;5.87;;;;;;;11.91;62.43;99045.83;1473705;88;22463;-83
2023/04/14 06:32:18;;;;;;;10.30;6.83;;;;;;;12.01;61.83;99050.33;1479936;87;21622;-83
2023/04/14 06:34:49;;;;;;;9.10;6.47;;;;;;;12.09;61.34;99050.20;1463402;87;22367;-83
2023/04/14 06:37:21;;;;;;;11.55;5.75;;;;;;;12.15;60.59;99050.75;1484557;88;22507;-82
2023/04/14 06:39:47;;;;;;;9.10;6.13;;;;;;;12.26;60.93;99047.28;1471123;87;21434;-83
2023/04/14 06:42:14;;;;;;;13.03;5.57;;;;;;;12.36;58.80;99049.89;1456730;88;21599;-82
2023/04/14 06:48:40;;;;;;;9.77;6.87;;;;;;;12.52;57.29;99039.52;1475806;88;21567;-78
2023/04/14 06:51:09;;;;;;;9.67;6.37;;;;;;;12.71;57.67;99039.81;1475242;87;21427;-77
2023/04/14 06:53:35;;;;;;;8.73;5.83;;;;;;;12.84;58.63;99034.08;1478036;87;21478;-79
2023/04/14 06:56:01;;;;;;;7.33;5.53;;;;;;;12.88;56.09;99039.81;1480895;87;22063;-80
2023/04/14 06:58:28;;;;;;;8.23;5.40;;;;;;;12.99;56.63;99035.79;1463194;87;21545;-79
2023/04/14 07:00:58;;;;;;;7.07;5.13;;;;;;;13.10;58.24;99032.06;1479588;87;21601;-79
2023/04/14 07:03:29;;;;;;;6.95;4.92;;;;;;;13.23;57.00;99031.80;1474206;87;21486;-79
2023/04/14 07:06:04;;;;;;;9.93;5.17;;;;;;;13.35;56.77;99034.25;1477255;88;21581;-78
2023/04/14 07:08:31;;;;;;;7.77;4.53;;;;;;;13.47;55.36;99031.31;1471052;87;21508;-79
2023/04/14 07:11:09;;;;;;;7.93;5.50;;;;;;;13.53;55.37;99024.38;1475829;87;22116;-78
2023/04/14 07:13:37;;;;;;;9.03;5.17;;;;;;;13.65;55.88;99028.59;1471203;87;22653;-80
2023/04/14 07:16:51;;;;;;;6.73;5.40;;;;;;;13.68;55.70;99026.34;1468231;88;21435;-79
2023/04/14 07:19:17;;;;;;;9.53;5.70;;;;;;;13.75;55.90;99024.53;1481410;87;21448;-79
2023/04/14 07:21:45;;;;;;;12.70;6.63;;;;;;;13.85;54.91;99022.80;1488317;88;21463;-79
2023/04/14 07:24:12;;;;;;;7.77;5.93;;;;;;;13.95;54.71;99020.56;1470577;87;21604;-79
2023/04/14 07:26:38;;;;;;;9.87;6.07;;;;;;;14.08;54.45;99007.77;1476953;88;21617;-79
2023/04/14 07:29:04;;;;;;;7.43;5.27;;;;;;;14.20;53.69;98995.99;1484844;88;22328;-79
2023/04/14 07:31:33;;;;;;;9.13;6.13;;;;;;;14.30;54.17;98991.57;1477368;87;21766;-79
2023/04/14 07:33:59;;;;;;;10.13;6.13;;;;;;;14.59;54.79;98987.69;1490787;87;22299;-79
2023/04/14 07:36:27;;;;;;;5.67;4.37;;;;;;;14.84;54.66;98984.61;1481514;87;21575;-79
2023/04/14 07:38:53;;;;;;;7.23;4.83;;;;;;;15.07;53.98;98990.78;1486250;88;22418;-79
2023/04/14 07:41:19;;;;;;;11.73;5.43;;;;;;;15.24;53.83;98976.97;1482793;88;21441;-79
2023/04/14 07:43:46;;;;;;;6.83;4.87;;;;;;;15.42;53.03;98973.09;1480263;87;21649;-80
2023/04/14 07:46:12;;;;;;;7.13;5.57;;;;;;;15.52;52.41;98974.76;1483897;87;21515;-79
2023/04/14 07:48:39;;;;;;;6.93;4.80;;;;;;;15.66;52.08;98974.16;1470647;88;21450;-80
2023/04/14 07:51:05;;;;;;;6.60;4.87;;;;;;;15.79;50.85;98982.60;1485463;87;21419;-79
2023/04/14 07:53:32;;;;;;;6.40;5.00;;;;;;;15.98;49.86;98978.16;1484876;87;21669;-79
2023/04/14 07:55:59;;;;;;;13.00;5.50;;;;;;;16.23;49.84;98970.96;1489603;88;22320;-79
2023/04/14 07:58:26;;;;;;;6.03;4.87;;;;;;;16.47;50.07;98968.47;1485676;87;21596;-85
2023/04/14 08:00:54;;;;;;;10.17;4.80;;;;;;;16.64;49.97;98965.51;1467799;88;21434;-84
2023/04/14 08:03:20;;;;;;;5.63;4.57;;;;;;;16.60;48.05;98968.83;1483680;88;21610;-86
2023/04/14 08:05:47;;;;;;;8.57;5.50;;;;;;;16.59;47.54;98967.20;1488050;87;21411;-86
2023/04/14 08:08:13;;;;;;;12.93;5.50;;;;;;;16.59;48.63;98966.69;1479496;87;22398;-86
2023/04/14 08:10:45;;;;;;;9.63;5.07;;;;;;;16.55;47.84;98968.18;1483434;87;22276;-86
2023/04/14 08:13:09;;;;;;;10.77;5.33;;;;;;;16.57;49.33;98974.13;1488710;87;21478;-86
2023/04/14 08:15:35;;;;;;;13.23;5.10;;;;;;;16.52;48.03;98972.63;1482560;87;21662;-85
2023/04/14 08:18:01;;;;;;;9.70;5.90;;;;;;;16.56;48.21;98969.80;1486464;87;22211;-86
2023/04/14 08:20:28;;;;;;;6.53;4.30;;;;;;;16.68;48.47;98964.01;1485059;87;21640;-88
2023/04/14 08:22:56;;;;;;;6.77;4.67;;;;;;;16.84;48.24;98953.81;1493339;88;21470;-85
2023/04/14 08:25:23;;;;;;;6.67;4.37;;;;;;;16.99;49.58;98958.23;1482919;88;21441;-85
2023/04/14 08:27:49;;;;;;;5.77;4.20;;;;;;;16.97;48.25;98962.98;1488337;88;21470;-86
2023/04/14 08:30:15;;;;;;;6.47;4.90;;;;;;;16.97;48.37;98955.49;1471264;88;22460;-85
2023/04/14 08:32:41;;;;;;;6.47;4.30;;;;;;;16.94;48.29;98954.08;1484851;87;21567;-86
2023/04/14 08:35:08;;;;;;;5.53;4.43;;;;;;;16.95;48.07;98953.06;1488201;88;22864;-86
2023/04/14 08:37:35;;;;;;;8.43;5.20;;;;;;;16.96;47.80;98946.66;1492660;87;21471;-86
2023/04/14 08:40:01;;;;;;;8.03;4.00;;;;;;;16.90;47.85;98947.56;1479975;87;21522;-85
2023/04/14 08:42:27;;;;;;;6.13;4.63;;;;;;;16.84;47.10;98944.46;1492177;87;21440;-86
2023/04/14 08:44:54;;;;;;;6.33;3.93;;;;;;;16.85;48.01;98940.73;1481407;88;21449;-85
2023/04/14 08:47:21;;;;;;;8.00;3.87;;;;;;;16.83;48.22;98932.13;1487744;87;21412;-86
2023/04/14 08:50:07;;;;;;;6.10;4.67;;;;;;;16.90;48.11;98936.88;1481306;88;21663;-86
2023/04/14 08:52:35;;;;;;;6.00;4.10;;;;;;;16.98;48.89;98935.77;1483039;87;21605;-86
2023/04/14 08:55:04;;;;;;;7.13;4.10;;;;;;;17.10;48.13;98940.11;1480985;88;21456;-86
2023/04/14 08:57:32;;;;;;;6.60;3.73;;;;;;;17.24;48.02;98935.40;1486582;88;21449;-85
2023/04/14 09:00:03;;;;;;;11.70;4.20;;;;;;;17.36;47.47;98926.08;1487212;88;21543;-85
2023/04/14 09:02:27;;;;;;;6.67;4.77;;;;;;;17.48;47.33;98918.89;1484161;87;21485;-85
2023/04/14 09:04:55;;;;;;;7.60;3.93;;;;;;;17.63;46.99;98914.97;1480932;87;21624;-85
2023/04/14 09:07:22;;;;;;;9.97;4.10;;;;;;;17.74;47.18;98910.16;1484055;87;21463;-85
2023/04/14 09:09:48;;;;;;;7.70;4.10;;;;;;;17.84;46.65;98906.43;1479513;87;21432;-85
2023/04/14 09:12:16;;;;;;;5.37;4.08;;;;;;;18.00;47.65;98905.72;1490053;87;21456;-87
2023/04/14 09:14:45;;;;;;;5.10;3.73;;;;;;;17.98;46.47;98902.98;1481266;87;21625;-86
2023/04/14 09:17:11;;;;;;;4.87;3.83;;;;;;;17.97;46.70;98910.20;1487580;88;21374;-85
2023/04/14 09:19:38;;;;;;;9.90;5.40;;;;;;;17.91;46.09;98904.44;1483149;87;21507;-85
2023/04/14 09:22:05;;;;;;;4.67;4.03;;;;;;;17.94;46.72;98907.99;1488614;88;21626;-84
2023/04/14 09:24:33;;;;;;;6.42;3.62;;;;;;;17.79;46.17;98905.77;1487285;87;22321;-85
2023/04/14 09:27:04;;;;;;;9.13;3.87;;;;;;;17.73;46.16;98907.20;1481655;88;21588;-85
2023/04/14 09:29:32;;;;;;;5.25;3.33;;;;;;;17.78;46.50;98908.67;1484643;88;22233;-86
2023/04/14 09:31:58;;;;;;;8.43;3.80;;;;;;;17.80;46.04;98906.59;1482477;88;21551;-86
2023/04/14 09:34:25;;;;;;;4.83;3.10;;;;;;;17.84;45.77;98898.41;1490551;88;21353;-86
2023/04/14 09:37:07;;;;;;;11.23;4.13;;;;;;;17.82;45.14;98904.50;1475764;88;21353;-85
2023/04/14 09:39:35;;;;;;;5.80;4.20;;;;;;;17.86;45.99;98906.19;1484818;87;21559;-86
2023/04/14 09:42:03;;;;;;;5.50;4.37;;;;;;;17.81;46.30;98904.22;1482487;88;21478;-87
2023/04/14 09:44:30;;;;;;;9.00;3.70;;;;;;;17.73;46.30;98907.20;1474773;88;21588;-87
2023/04/14 09:47:03;;;;;;;7.07;4.40;;;;;;;17.72;46.16;98905.55;1480520;87;21485;-86
2023/04/14 09:49:30;;;;;;;5.30;3.50;;;;;;;17.65;46.35;98894.97;1480846;88;21338;-86
2023/04/14 09:52:08;;;;;;;5.33;3.57;;;;;;;17.60;45.91;98901.00;1478492;88;22506;-86
2023/04/14 09:54:34;;;;;;;8.70;3.70;;;;;;;17.60;46.81;98898.33;1482129;88;21397;-85
2023/04/14 09:57:01;;;;;;;7.43;3.90;;;;;;;17.64;46.37;98896.03;1486358;87;21374;-86
2023/04/14 09:59:38;;;;;;;9.60;3.60;;;;;;;17.63;46.22;98895.71;1481046;87;21566;-86
2023/04/14 10:02:07;;;;;;;5.10;3.70;;;;;;;17.63;46.47;98890.36;1476599;87;21412;-85
2023/04/14 10:04:35;;;;;;;7.27;2.97;;;;;;;17.62;46.24;98887.94;1482219;87;21508;-85
2023/04/14 10:07:03;;;;;;;9.93;3.37;;;;;;;17.63;45.45;98875.65;1485183;87;21426;-85
2023/04/14 10:09:31;;;;;;;6.73;2.93;;;;;;;17.68;45.15;98873.10;1483801;87;21470;-85
2023/04/14 10:12:14;;;;;;;9.70;4.17;;;;;;;17.66;45.03;98869.83;1488352;87;21551;-86
2023/04/14 10:14:42;;;;;;;6.33;3.60;;;;;;;17.75;45.43;98867.13;1490657;87;21604;-85
2023/04/14 10:17:10;;;;;;;12.57;4.10;;;;;;;17.93;46.35;98870.23;1489769;87;21427;-87
2023/04/14 10:19:37;;;;;;;9.57;4.37;;;;;;;18.10;46.81;98867.67;1478156;87;21411;-87
2023/04/14 10:22:05;;;;;;;8.03;3.43;;;;;;;18.17;46.74;98865.67;1489648;87;21541;-88
2023/04/14 10:24:32;;;;;;;9.07;3.60;;;;;;;18.21;46.07;98872.20;1485864;87;21456;-86
2023/04/14 10:27:02;;;;;;;13.67;3.83;;;;;;;18.17;45.65;98870.22;1478179;88;21533;-87
2023/04/14 10:29:29;;;;;;;8.45;3.40;;;;;;;18.12;45.15;98871.44;1478382;87;21574;-85
2023/04/14 10:32:01;;;;;;;8.50;3.70;;;;;;;18.06;45.64;98879.07;1484850;87;21448;-84
2023/04/14 10:34:31;;;;;;;10.33;4.67;;;;;;;18.06;45.75;98873.72;1480387;87;21507;-84
2023/04/14 10:37:13;;;;;;;6.45;3.27;;;;;;;17.99;45.98;98876.52;1484603;88;21418;-84
2023/04/14 10:39:40;;;;;;;6.50;3.50;;;;;;;17.96;46.34;98872.45;1480493;87;21420;-86
2023/04/14 10:42:06;;;;;;;8.27;3.23;;;;;;;17.91;45.74;98874.20;1480679;88;21426;-86
2023/04/14 10:44:35;;;;;;;8.90;3.53;;;;;;;17.85;45.45;98873.79;1484544;87;21514;-85
2023/04/14 10:47:06;;;;;;;6.67;3.10;;;;;;;17.76;44.62;98874.63;1485581;88;21485;-86
2023/04/14 10:49:37;;;;;;;6.33;3.67;;;;;;;17.69;43.76;98871.23;1485393;87;21486;-86
2023/04/14 10:52:18;;;;;;;7.85;3.40;;;;;;;17.63;44.24;98867.63;1484862;88;22589;-85
2023/04/14 10:55:02;;;;;;;8.67;3.30;;;;;;;17.60;44.12;98873.44;1486249;88;21684;-85
2023/04/14 10:57:29;;;;;;;12.07;3.47;;;;;;;17.53;43.99;98866.88;1486669;87;21381;-84
2023/04/14 10:59:58;;;;;;;25.07;5.57;;;;;;;17.55;44.58;98871.47;1486201;87;22365;-84
2023/04/14 11:02:30;;;;;;;8.77;3.20;;;;;;;17.54;44.85;98863.14;1487464;88;21448;-85
2023/04/14 11:05:07;;;;;;;9.30;3.67;;;;;;;17.47;44.90;98873.14;1469732;88;21426;-86
2023/04/14 11:07:50;;;;;;;7.37;2.57;;;;;;;17.40;45.40;98875.09;1474790;88;21522;-85
2023/04/14 11:10:25;;;;;;;4.80;2.83;;;;;;;17.30;44.15;98876.19;1490109;87;21485;-85
2023/04/14 11:12:58;;;;;;;6.40;3.20;;;;;;;17.24;44.88;98879.78;1482621;88;21478;-87
2023/04/14 11:15:45;;;;;;;3.80;2.80;;;;;;;17.13;45.24;98876.02;1481241;87;22306;-87
2023/04/14 11:18:21;;;;;;;7.47;3.90;;;;;;;17.08;44.76;98892.73;1482546;87;22519;-86
2023/04/14 11:20:51;;;;;;;5.73;3.67;;;;;;;17.07;45.29;98891.11;1473242;88;21479;-84
2023/04/14 11:23:23;;;;;;;7.05;3.60;;;;;;;17.07;45.22;98914.36;1480814;87;21563;-85
2023/04/14 11:25:51;;;;;;;11.00;4.03;;;;;;;17.04;45.34;98926.31;1475690;87;21611;-84
2023/04/14 11:28:32;;;;;;;6.33;3.67;;;;;;;17.03;45.60;98938.55;1478105;88;21449;-85
2023/04/14 11:31:01;;;;;;;10.53;4.50;;;;;;;17.01;45.72;98936.65;1470766;87;21405;-86
2023/04/14 11:33:34;;;;;;;16.33;5.40;;;;;;;16.99;45.96;98928.84;1482437;88;21678;-86
2023/04/14 11:36:02;;;;;;;21.00;4.27;;;;;;;16.96;45.91;98933.30;1470902;88;21613;-85
2023/04/14 11:38:30;;;;;;;6.83;3.67;;;;;;;16.96;45.94;98937.84;1477022;87;21405;-87
2023/04/14 11:40:56;;;;;;;7.23;3.97;;;;;;;16.96;46.18;98945.33;1474605;88;21553;-88
2023/04/14 11:43:24;;;;;;;7.57;4.00;;;;;;;16.89;47.00;98948.62;1474751;87;21464;-88
2023/04/14 11:45:51;;;;;;;14.50;4.63;;;;;;;16.85;47.35;98946.89;1472711;87;21404;-87